Hauptseite
METAR-TAF:

METAR-TAF

Flughäfen :

Flughafen Jersey

Jersey,

Breite: 49-13N, Länge: 002-12W, Höhe: 84 m

Beobachtung

Neuester Wetterbericht von vor 21 Minuten, um 13:20 UTC
Wind 5 kt aus Südwest, variierte zwischen Süd und West
Temperatur 26°C
Luftfeuchtigkeit 45%
Luftdruck 1017 hPa
Sichtweite 10 km oder mehr
keine Wolken unter 1500 m und keine Kumulonimbus oder Gewitterwolken

METAR: EGJJ 061320Z 22005KT 180V270 CAVOK 26/13 Q1017

Zeit: 14:41 (13:41 UTC)

Prognose

Neuester Wetterbericht von vor 2 Stunden und 37 Minuten, um 11:04 UTC
Gültige Prognose vom 06 um 12 UTC bis 06 um 21 UTC
Wind 7 kt aus Südost
Sichtweite 10 km oder mehr
keine Wolken unter 1500 m und keine Kumulonimbus oder Gewitterwolken
Übergehend zu
vom 06 um 17 UTC bis 06 um 19 UTC
Wind 10 kt aus Nordost

TAF: EGJJ 061104Z 0612/0621 14007KT CAVOK BECMG 0617/0619 04010KT

Wetterbeobachtungen und Prognosen von mehr als 4000 Flughäfen (METAR und TAF Bericht).

Die verfügbaren Stationen werden durch gelbe und rote Markierungen auf der Karte dargestellt.

Führen Sie die Maus auf sie, um den Namen der Station zu sehen.

Darauf klicken, um die Beobachtung von Wetterbeobachtungen und Prognosen zu sehen.

Um die Karte zu ändern : klicken Sie auf den grünen Tasten mit einem schwarzen Kreuz Zum Vergrößern, auf den grünen Button mit einem Gedankenstrich zu verkleinern, oder auf die grünen Pfeile für benachbarte Karten.


METAR-TAF: